Alex Oliveira

Olheiro-Chefe - Flamengo
4 Abr 2027
Domingo
Processo

Personalidade

Adaptabilidade (12) Ambição (3) Controvérsia (18) Lealdade (18) Pressão (12) Profissionalismo (3) Espírito Esportivo (14) Temperamento (2)

Perfil

Estilo de Treinamento Democrático
Licença Continental Pro
Determinação 9
Gestão de Pessoas 13
Motivação 14
Disciplina 12
Satisfação no Trabalho
100%
Fadiga
0%
Função Olheiro-Chefe
Salário 60.4K p/s
Contrato 14.03.2028

Desempenho

Comportamento Bom
Eficácia do Treinamento
59%
Desenvolvimento do Jogador
30%
Prevenção de Lesões
40%
Implementação Tática
35%

Eventos Recentes

Avaliou um jogador agora
Avaliou um jogador agora
Participou de uma reunião de recrutamento agora
Recomendou um alvo de transferência agora
Recomendou um alvo de transferência agora
Recomendou um alvo de transferência agora
Avaliou um jogador agora
Avaliou um jogador agora

Monitorando agora

208
Jogador Clube Status Habilidade Confiança Observado Última observação Último voto
Luis Suárez Sporting CP Ativo 154 / 146 40% 8 02.04.2027 -
Thiago Brentford Ativo 147 / 143 40% 4 02.04.2027 -
Kai Havertz Arsenal Ativo 158 / 147 40% 3 02.04.2027 -
Santiago Castro AS Roma Ativo 149 / 163 40% 5 01.04.2027 -
Taty Castellanos West Ham United Ativo 150 / 156 40% 4 01.04.2027 -
Victor Osimhen Galatasaray Ativo 166 / 164 40% 8 31.03.2027 -
Ferran Torres Paris Saint-Germain Ativo 164 / 155 40% 3 31.03.2027 -
Taiwo Awoniyi Coventry City Ativo 142 / 122 40% 2 31.03.2027 -
Alexis Vega Toluca Ativo 148 / 139 40% 14 30.03.2027 -
Exequiel Palacios Ipswich Town Ativo 154 / 145 40% 8 29.03.2027 -
Francisco Moura Porto Ativo 143 / 153 40% 4 29.03.2027 -
Tammy Abraham Aston Villa Ativo 140 / 150 40% 1 29.03.2027 -
Juanlu Bournemouth Ativo 149 / 165 40% 1 29.03.2027 -
Víctor Gómez Braga Ativo 139 / 125 40% 8 28.03.2027 -
Jakub Kiwior Porto Ativo 155 / 141 40% 5 28.03.2027 -
Gabriel Gudmundsson Leeds United Ativo 138 / 129 40% 5 27.03.2027 -
Wesley Fofana Chelsea Ativo 164 / 155 40% 2 27.03.2027 -
Alberto Costa Porto Ativo 144 / 138 40% 7 26.03.2027 -
James Garner Everton Ativo 152 / 145 40% 2 26.03.2027 -
Florentino Luís Ipswich Town Ativo 137 / 151 40% 1 26.03.2027 -
Amadou Onana Aston Villa Ativo 153 / 171 40% 4 25.03.2027 -
Tino Livramento Newcastle United Ativo 157 / 156 40% 4 25.03.2027 -
Salvador Blopá Sporting CP Ativo 117 / 115 40% 1 25.03.2027 -
Georginio Rutter Brighton Ativo 150 / 150 40% 2 23.03.2027 -
Nico Paz Como Ativo 155 / 165 40% 6 23.03.2027 -
Cesar Corona Veracruz Ativo 139 / 144 40% 6 23.03.2027 -
Jonathan David Juventus Ativo 155 / 157 40% 5 22.03.2027 -
Saša Lukić Ipswich Town Ativo 138 / 151 40% 2 22.03.2027 -
Viktor Gyökeres Arsenal Ativo 154 / 156 40% 1 22.03.2027 -
Khéphren Thuram Juventus Ativo 154 / 161 40% 1 22.03.2027 -
Iván Fresneda Sporting CP Ativo 136 / 140 40% 9 21.03.2027 -
Brandon Aguilera Rio Ave Ativo 121 / 107 40% 1 21.03.2027 -
Levi Colwill Chelsea Ativo 159 / 154 40% 5 19.03.2027 -
Moise Kean Fiorentina Ativo 155 / 146 40% 5 19.03.2027 -
Evanilson Bournemouth Ativo 154 / 146 40% 4 19.03.2027 -
Finn van Breemen Famalicao Ativo 118 / 131 40% 1 19.03.2027 -
Giacomo Raspadori Atalanta Ativo 153 / 154 40% 5 17.03.2027 -
Pau Víctor Braga Ativo 139 / 138 40% 8 17.03.2027 -
Jarrod Bowen West Ham United Ativo 158 / 160 40% 2 17.03.2027 -
Marcel Ruiz Toluca Ativo 146 / 148 40% 6 16.03.2027 -
Reiss Nelson AC Milan Ativo 143 / 140 40% 2 16.03.2027 -
Vangelis Pavlidis Benfica Ativo 155 / 156 40% 6 16.03.2027 -
Makan Aïko Tondela Ativo 120 / 124 40% 2 16.03.2027 -
Lautaro Martínez Inter Ativo 169 / 158 40% 5 14.03.2027 -
Jean-Philippe Mateta Crystal Palace Ativo 154 / 160 40% 3 12.03.2027 -
Largie Ramazani Leeds United Ativo 143 / 131 40% 3 11.03.2027 -
Maximiliano Araújo Sporting CP Ativo 154 / 146 40% 13 09.03.2027 -
Geny Sporting CP Ativo 149 / 147 40% 6 09.03.2027 -
Mason Greenwood Fenerbahce Ativo 159 / 157 40% 2 09.03.2027 -
Jason Januzaj Mouscron Ativo 147 / 158 40% 4 09.03.2027 -
Leonardo Lelo Braga Ativo 136 / 122 40% 2 09.03.2027 -
Borja Sainz Porto Ativo 147 / 154 40% 5 05.03.2027 -
Heorhii Sudakov Benfica Ativo 152 / 132 40% 7 05.03.2027 -
Julio Enciso Ipswich Town Ativo 143 / 153 40% 3 05.03.2027 -
Igor Jesus Nottingham Forest Ativo 144 / 157 40% 3 05.03.2027 -
João Pedro Chelsea Ativo 150 / 152 40% 2 03.03.2027 -
Dušan Vlahović Juventus Ativo 161 / 155 40% 1 03.03.2027 -
Loïs Openda Juventus Ativo 149 / 157 40% 1 02.03.2027 -
Donyell Malen AS Roma Ativo 150 / 133 40% 3 28.02.2027 -
Yanis Begraoui Estoril Praia Ativo 133 / 125 40% 2 27.02.2027 -
Nordi Mukiele Sunderland Ativo 151 / 128 40% 3 27.02.2027 -
Adrien Truffert Bournemouth Ativo 154 / 161 40% 1 27.02.2027 -
Gabri Veiga Porto Ativo 153 / 140 40% 4 24.02.2027 -
Mateo Retegui Al-Qadisiyah Ativo 159 / 142 40% 10 22.02.2027 -
Nicolas Jackson Aston Villa Ativo 147 / 144 40% 4 22.02.2027 -
Dodi Lukébakio Benfica Ativo 151 / 150 40% 6 20.02.2027 -
Boubacar Kamara Aston Villa Ativo 167 / 152 40% 2 19.02.2027 -
Alan Varela Porto Ativo 143 / 149 40% 1 19.02.2027 -
Kenan Yıldız Juventus Ativo 159 / 180 40% 1 16.02.2027 -
Vinícius Lopes Santa Clara Ativo 118 / 117 40% 1 16.02.2027 -
Haissem Hassan Bloemfontein Celtic Ativo 130 / 149 40% 1 16.02.2027 -
Musa Barrow Al-Khaleej Ativo 133 / 140 40% 1 14.02.2027 -
Jean-Luc Morin Tours Ativo 141 / 127 40% 3 13.02.2027 -
Soufiane Rahimi Al Ain Ativo 139 / 149 40% 2 12.02.2027 -
Maxence Lacroix Chelsea Ativo 153 / 142 40% 2 10.02.2027 -
Alexis Mac Allister Liverpool Ativo 160 / 173 40% 4 10.02.2027 -
Matthijs de Ligt Manchester United Ativo 157 / 156 40% 2 09.02.2027 -
Conor Gallagher Tottenham Ativo 156 / 158 40% 1 09.02.2027 -
Martín Zubimendi Arsenal Ativo 169 / 176 40% 1 06.02.2027 -
Robin Roefs Sunderland Ativo 147 / 131 40% 3 03.02.2027 -
Cezary Miszta Rio Ave Ativo 126 / 135 40% 1 03.02.2027 -
Gustaf Lagerbielke Braga Ativo 142 / 121 40% 3 30.01.2027 -
Grégoire Coudert Burnley Ativo 128 / 124 40% 2 30.01.2027 -
Sam Tickle Wigan Athletic Ativo 133 / 128 40% 1 30.01.2027 -
Mads Hermansen West Ham United Ativo 135 / 122 40% 1 30.01.2027 -
Lorenzo Palmisani Frosinone Ativo 122 / 122 40% 1 29.01.2027 -
Radek Vítek Middlesbrough Ativo 136 / 131 40% 1 29.01.2027 -
Yehvann Diouf OGC Nice Ativo 144 / 141 40% 1 29.01.2027 -
Lucas Chevalier Paris Saint-Germain Ativo 161 / 166 40% 1 28.01.2027 -
Axel Alderweireld KV Oostende Ativo 138 / 152 40% 1 28.01.2027 -
Federico Pereira Toluca Ativo 138 / 141 40% 1 26.01.2027 -
Elia Caprile Cagliari Ativo 139 / 154 40% 1 26.01.2027 -
Diogo Costa Paris Saint-Germain Ativo 160 / 168 40% 1 26.01.2027 -
Bernardo Fontes Braga Ativo 135 / 139 40% 1 26.01.2027 -
Anthony Patterson Wrexham Ativo 130 / 145 40% 3 24.01.2027 -
Robin Risser RC Lens Ativo 139 / 132 40% 1 24.01.2027 -
Marco Carnesecchi Atalanta Ativo 152 / 154 40% 1 24.01.2027 -
Pedro Porro Tottenham Ativo 152 / 145 40% 3 21.01.2027 -
Mile Svilar AS Roma Ativo 161 / 155 40% 2 21.01.2027 -
Vitinho Botafogo Ativo 135 / 140 40% 3 21.01.2027 -
Kostantis Tzolakis Hull City Ativo 142 / 133 40% 2 21.01.2027 -
Hwang In-Beom Porto Ativo 145 / 133 40% 4 20.01.2027 -
Zeno Debast Sporting CP Ativo 137 / 147 40% 2 20.01.2027 -
Richard Ríos Benfica Ativo 145 / 127 40% 3 18.01.2027 -
Joško Gvardiol Manchester City Ativo 160 / 163 40% 1 18.01.2027 -
Tyler Adams Bournemouth Ativo 155 / 161 40% 2 16.01.2027 -
Noussair Mazraoui Manchester United Ativo 153 / 166 40% 1 16.01.2027 -
Óscar Mingueza Crystal Palace Ativo 152 / 152 40% 1 16.01.2027 -
Gonçalo Inácio Sporting CP Ativo 148 / 145 40% 2 14.01.2027 -
Enzo Barrenechea Benfica Ativo 154 / 152 40% 7 13.01.2027 -
Olivier Boscagli Brighton Ativo 145 / 149 40% 2 10.01.2027 -
Lazar Carević Famalicao Ativo 134 / 126 40% 1 10.01.2027 -
Carl Rushworth Coventry City Ativo 139 / 139 40% 1 10.01.2027 -
Jan Bednarek Porto Ativo 140 / 140 40% 1 08.01.2027 -
Gianluigi Donnarumma Manchester City Ativo 170 / 163 40% 1 08.01.2027 -
Senne Lammens Manchester United Ativo 146 / 134 40% 1 07.01.2027 -
Hugo Souza Corinthians Ativo 137 / 137 40% 1 07.01.2027 -
Cesar Corona Veracruz Perdido 142 / 139 40% 3 21.12.2026 -
Ferreirinha Sport Recife Ativo 132 / 134 79% 1 21.12.2026 Aprovar
Jason Januzaj Mouscron Perdido 140 / 159 40% 1 14.12.2026 -
Bernardo Fontes Braga Perdido 124 / 132 40% 1 07.12.2026 -
Cezary Miszta Rio Ave Perdido 134 / 128 40% 1 07.12.2026 -
Memphis Depay Corinthians Ativo 142 / 135 79% 1 02.12.2026 Aprovar
Paulinho Palmeiras Ativo 140 / 140 66% 1 01.12.2026 Aprovar
Borja Mayoral Getafe Ativo 140 / 141 40% 2 28.11.2026 -
Federico Chiesa Liverpool Ativo 153 / 167 40% 1 28.11.2026 -
Guille Rosas Gijón Ativo 138 / 125 40% 1 27.11.2026 -
Pepê Porto Ativo 145 / 158 40% 9 24.11.2026 -
Harry Wilson Leeds United Ativo 137 / 142 40% 1 24.11.2026 -
Charles De Ketelaere Atalanta Ativo 152 / 145 40% 3 23.11.2026 -
Loum Tchaouna Coventry City Ativo 146 / 123 40% 5 23.11.2026 -
Kevin Schade Brentford Ativo 144 / 153 40% 2 23.11.2026 -
Ez Abde Betis Ativo 156 / 141 40% 1 23.11.2026 -
Rodrigo Zalazar Sporting CP Ativo 145 / 148 40% 4 20.11.2026 -
Pote Sporting CP Ativo 150 / 152 40% 4 20.11.2026 -
Kang-In Lee Atlético Madrid Ativo 154 / 152 40% 1 18.11.2026 -
Moussa Diaby Al-Ittihad Ativo 147 / 131 40% 1 18.11.2026 -
Alan Varela Porto Perdido 147 / 138 40% 11 17.11.2026 -
Yuri Alberto Corinthians Perdido 140 / 144 40% 10 17.11.2026 -
Yeremay Deportivo La Coruña Ativo 149 / 135 40% 6 17.11.2026 -
Gérson Cruzeiro Ativo 139 / 146 40% 3 16.11.2026 -
Emile Smith Rowe Fulham Ativo 154 / 144 40% 1 15.11.2026 -
Javi Puado Espanyol Ativo 152 / 131 40% 1 15.11.2026 -
Dominic Solanke Tottenham Ativo 149 / 159 40% 1 15.11.2026 -
João Costa Santa Clara Ativo 109 / 126 40% 1 14.11.2026 -
Camilo Durán Bloemfontein Celtic Ativo 114 / 118 40% 1 14.11.2026 -
José Paradela Cruz Azul Ativo 143 / 132 40% 2 11.11.2026 -
Georges Mikautadze Villarreal Ativo 149 / 147 40% 1 11.11.2026 -
Frenkie de Jong Barcelona Ativo 174 / 171 40% 3 10.11.2026 -
Barış Alper Yılmaz Galatasaray Ativo 145 / 147 40% 3 09.11.2026 -
George Hirst Stoke City Ativo 141 / 130 40% 1 09.11.2026 -
José Manuel López Palmeiras Ativo 132 / 123 40% 1 09.11.2026 -
Alex Scott Bournemouth Ativo 145 / 133 40% 1 07.11.2026 -
Omar El Hilali Espanyol Ativo 152 / 139 40% 1 07.11.2026 -
Bruno Guimarães Arsenal Ativo 168 / 173 40% 1 07.11.2026 -
Liam Delap Nottingham Forest Ativo 140 / 151 40% 1 05.11.2026 -
James Maddison Tottenham Ativo 162 / 161 40% 2 04.11.2026 -
Victor Froholdt Porto Ativo 148 / 145 40% 7 02.11.2026 -
Pape Guèye Villarreal Ativo 151 / 141 40% 2 31.10.2026 -
Gonzalo Fulham Ativo 148 / 150 40% 3 30.10.2026 -
Thiago Almada River Plate Ativo 148 / 143 40% 7 26.10.2026 -
Jacob Ramsey Newcastle United Ativo 144 / 157 40% 1 26.10.2026 -
Brais Méndez Columbus Crew Ativo 152 / 144 40% 8 25.10.2026 -
Abel Bretones Osasuna Ativo 134 / 125 40% 1 25.10.2026 -
Luiz Henrique Zenit Ativo 139 / 132 40% 1 22.10.2026 -
Steven Bergwijn Al-Ittihad Ativo 153 / 146 40% 4 17.10.2026 -
José Ángel Carmona Sevilla Ativo 145 / 134 40% 1 14.10.2026 -
Antonee Robinson Fulham Ativo 158 / 157 40% 1 12.10.2026 -
Tomás Araújo Benfica Ativo 148 / 141 40% 1 12.10.2026 -
Lukáš Provod Slavia Prague Ativo 154 / 155 40% 4 10.10.2026 -
Arnaut Danjuma Valencia Ativo 140 / 155 40% 1 10.10.2026 -
William Gomes Porto Ativo 131 / 161 40% 3 09.10.2026 -
Roberto Fernández Braga Ativo 132 / 135 40% 2 08.10.2026 -
Leandro Barreiro Benfica Ativo 133 / 131 40% 4 06.10.2026 -
Igor Paixão Olympique de Marseille Ativo 152 / 156 40% 2 04.10.2026 -
Mahmoud Al Bloushi Al Shabab Ativo 154 / 139 40% 1 04.10.2026 -
Alfonso Trezza Arouca Ativo 123 / 108 40% 1 03.10.2026 -
Korede Osundina Casa Pia Ativo 111 / 114 40% 1 03.10.2026 -
Allan Saint-Maximin Charlotte Football Club Ativo 145 / 140 40% 3 28.09.2026 -
Santiago Giménez AC Milan Ativo 139 / 155 40% 1 27.09.2026 -
Benjamin Šeško Manchester United Ativo 154 / 167 40% 1 27.09.2026 -
Ismaël Bennacer Palmeiras Ativo 149 / 146 40% 4 26.09.2026 -
Gianluca Scamacca Atalanta Ativo 154 / 131 40% 3 25.09.2026 -
Brennan Johnson Everton Ativo 145 / 125 40% 1 25.09.2026 -
Gianluca Prestianni Benfica Ativo 130 / 121 40% 4 18.09.2026 -
Luis Sinisterra Cruzeiro Ativo 134 / 143 40% 2 18.09.2026 -
Julián Quiñones Al-Qadisiyah Ativo 144 / 158 40% 2 16.09.2026 -
Rasmus Højlund Napoli Ativo 154 / 137 40% 1 16.09.2026 -
Jhon Arias Palmeiras Ativo 137 / 140 40% 1 16.09.2026 -
Carlos Vicente Birmingham Ativo 133 / 133 40% 2 10.09.2026 -
Marcos Antonio Sport Recife Ativo 134 / 126 40% 1 09.09.2026 -
Iván Martín Racing Club Ativo 140 / 152 40% 2 02.09.2026 -
Breno Bidon Corinthians Ativo 128 / 145 40% 1 01.09.2026 -
Mathias De Amorim Famalicao Ativo 133 / 129 40% 2 21.08.2026 -
Yoan Bonny Inter Ativo 140 / 151 40% 1 20.08.2026 -
Alexey Batrakov Galatasaray Ativo 140 / 159 40% 1 20.08.2026 -
Emiliano Buendía Aston Villa Ativo 137 / 130 40% 1 14.08.2026 -
Diego Gómez Brighton Ativo 135 / 154 40% 1 13.08.2026 -
Martim Fernandes Porto Ativo 126 / 124 40% 1 10.08.2026 -
Diego Rodrigues Braga Ativo 120 / 133 40% 1 10.08.2026 -
Yangel Herrera Real Sociedad Ativo 149 / 156 40% 1 07.08.2026 -
Luís Guilherme Sporting CP Ativo 119 / 139 40% 1 06.08.2026 -
Vitor Roque Palmeiras Ativo 137 / 155 40% 2 05.08.2026 -
Jorge De Frutos Rayo Vallecano Ativo 141 / 137 40% 2 04.08.2026 -
Jones El-Abdellaoui Celta Ativo 126 / 116 40% 1 04.08.2026 -
Demir Ege Tıknaz Braga Ativo 125 / 134 40% 1 02.08.2026 -
Kaoru Mitoma Brighton Ativo 164 / 148 40% 1 02.08.2026 -
Christian Pulisic AC Milan Ativo 166 / 146 40% 1 02.08.2026 -